Terminal Aerodrome Forecast
Issued by NWS Jackson, MS

Home | Current Version | Previous Version | Text Only | Print | Product List | Glossary On
Versions: 1 2 3 4 5 6 7 8 9 10 11 12 13
430
FTUS44 KJAN 112322
TAFMEI
TAF
KMEI 112322Z 1200/1224 33005KT P6SM SKC
     FM121200 25004KT 4SM BR OVC015
     FM121500 31008KT P6SM OVC015
     FM121800 29009KT P6SM FEW250=

USA.gov is the U.S. government's official web portal to all federal, state and local government web resources and services.